sensor_id;sensor_type;location;lat;lon;timestamp;pressure;altitude;pressure_sealevel;temperature;humidity
56160;BME280;42043;46.052;13.612;2022-08-04T00:04:14;100650.00;;;21.70;99.51
56160;BME280;42043;46.052;13.612;2022-08-04T00:06:59;100649.03;;;21.76;99.76
56160;BME280;42043;46.052;13.612;2022-08-04T00:12:16;100655.94;;;21.72;98.54
56160;BME280;42043;46.052;13.612;2022-08-04T00:14:48;100648.25;;;22.32;95.36
56160;BME280;42043;46.052;13.612;2022-08-04T00:17:19;100646.84;;;22.46;93.63
56160;BME280;42043;46.052;13.612;2022-08-04T00:19:47;100644.25;;;22.17;95.61
56160;BME280;42043;46.052;13.612;2022-08-04T00:22:16;100658.00;;;21.36;100.00
56160;BME280;42043;46.052;13.612;2022-08-04T00:24:45;100658.16;;;21.75;100.00
56160;BME280;42043;46.052;13.612;2022-08-04T00:27:11;100656.50;;;22.42;94.90
56160;BME280;42043;46.052;13.612;2022-08-04T00:29:38;100661.53;;;22.55;94.01
56160;BME280;42043;46.052;13.612;2022-08-04T00:32:06;100658.66;;;21.72;98.41
56160;BME280;42043;46.052;13.612;2022-08-04T00:34:33;100658.22;;;21.64;99.96
56160;BME280;42043;46.052;13.612;2022-08-04T00:36:59;100651.19;;;22.13;95.71
56160;BME280;42043;46.052;13.612;2022-08-04T00:39:26;100653.69;;;21.35;100.00
56160;BME280;42043;46.052;13.612;2022-08-04T00:45:02;100650.31;;;21.91;98.61
56160;BME280;42043;46.052;13.612;2022-08-04T00:47:43;100651.69;;;22.10;97.43
56160;BME280;42043;46.052;13.612;2022-08-04T00:50:49;100655.28;;;21.82;98.52
56160;BME280;42043;46.052;13.612;2022-08-04T00:53:30;100656.59;;;21.80;98.94
56160;BME280;42043;46.052;13.612;2022-08-04T01:02:05;100661.41;;;21.94;96.99
56160;BME280;42043;46.052;13.612;2022-08-04T01:04:49;100659.72;;;21.14;100.00
56160;BME280;42043;46.052;13.612;2022-08-04T01:10:22;100657.34;;;21.75;98.92
56160;BME280;42043;46.052;13.612;2022-08-04T01:15:39;100660.88;;;21.92;97.77
56160;BME280;42043;46.052;13.612;2022-08-04T01:18:21;100652.78;;;22.26;95.28
56160;BME280;42043;46.052;13.612;2022-08-04T01:21:21;100647.38;;;21.01;100.00
56160;BME280;42043;46.052;13.612;2022-08-04T01:24:24;100652.03;;;21.80;99.51
56160;BME280;42043;46.052;13.612;2022-08-04T01:36:10;100650.16;;;21.06;100.00
56160;BME280;42043;46.052;13.612;2022-08-04T01:38:39;100646.88;;;20.64;100.00
56160;BME280;42043;46.052;13.612;2022-08-04T01:41:13;100643.97;;;21.06;100.00
56160;BME280;42043;46.052;13.612;2022-08-04T01:43:41;100643.72;;;21.82;98.54
56160;BME280;42043;46.052;13.612;2022-08-04T01:46:14;100632.38;;;21.63;98.58
56160;BME280;42043;46.052;13.612;2022-08-04T01:48:45;100643.19;;;20.93;100.00
56160;BME280;42043;46.052;13.612;2022-08-04T01:51:12;100642.91;;;20.66;100.00
56160;BME280;42043;46.052;13.612;2022-08-04T01:53:42;100638.06;;;21.49;100.00
56160;BME280;42043;46.052;13.612;2022-08-04T01:56:10;100640.66;;;21.15;100.00
56160;BME280;42043;46.052;13.612;2022-08-04T01:58:39;100641.81;;;21.48;100.00
56160;BME280;42043;46.052;13.612;2022-08-04T02:01:10;100635.53;;;20.73;100.00
56160;BME280;42043;46.052;13.612;2022-08-04T02:03:39;100636.84;;;21.00;100.00
56160;BME280;42043;46.052;13.612;2022-08-04T02:11:26;100641.06;;;20.43;100.00
56160;BME280;42043;46.052;13.612;2022-08-04T02:14:01;100636.25;;;20.45;100.00
56160;BME280;42043;46.052;13.612;2022-08-04T02:21:55;100631.47;;;20.47;100.00
56160;BME280;42043;46.052;13.612;2022-08-04T02:24:26;100625.09;;;21.46;100.00
56160;BME280;42043;46.052;13.612;2022-08-04T02:26:55;100626.38;;;20.86;100.00
56160;BME280;42043;46.052;13.612;2022-08-04T02:32:02;100626.16;;;21.62;98.76
56160;BME280;42043;46.052;13.612;2022-08-04T02:34:48;100630.31;;;21.24;100.00
56160;BME280;42043;46.052;13.612;2022-08-04T02:37:19;100630.13;;;21.14;100.00
56160;BME280;42043;46.052;13.612;2022-08-04T02:39:46;100624.13;;;21.24;100.00
56160;BME280;42043;46.052;13.612;2022-08-04T02:42:15;100621.63;;;21.34;99.39
56160;BME280;42043;46.052;13.612;2022-08-04T02:44:42;100622.81;;;20.22;100.00
56160;BME280;42043;46.052;13.612;2022-08-04T02:47:13;100624.91;;;20.55;100.00
56160;BME280;42043;46.052;13.612;2022-08-04T02:49:40;100616.78;;;21.19;100.00
56160;BME280;42043;46.052;13.612;2022-08-04T02:52:09;100621.81;;;21.44;98.70
56160;BME280;42043;46.052;13.612;2022-08-04T02:54:38;100620.44;;;21.59;97.07
56160;BME280;42043;46.052;13.612;2022-08-04T02:57:11;100621.06;;;20.51;100.00
56160;BME280;42043;46.052;13.612;2022-08-04T03:02:54;100612.44;;;21.47;98.05
56160;BME280;42043;46.052;13.612;2022-08-04T03:08:34;100610.41;;;20.68;100.00
56160;BME280;42043;46.052;13.612;2022-08-04T03:14:20;100616.38;;;20.70;100.00
56160;BME280;42043;46.052;13.612;2022-08-04T03:17:13;100620.16;;;20.98;100.00
56160;BME280;42043;46.052;13.612;2022-08-04T03:23:27;100613.19;;;21.30;98.33
56160;BME280;42043;46.052;13.612;2022-08-04T03:25:40;100612.63;;;20.71;100.00
56160;BME280;42043;46.052;13.612;2022-08-04T03:42:43;100608.06;;;20.60;100.00
56160;BME280;42043;46.052;13.612;2022-08-04T03:56:25;100611.47;;;21.53;96.28
56160;BME280;42043;46.052;13.612;2022-08-04T03:59:16;100611.06;;;21.15;98.14
56160;BME280;42043;46.052;13.612;2022-08-04T04:18:58;100620.22;;;20.74;100.00
56160;BME280;42043;46.052;13.612;2022-08-04T04:28:05;100616.47;;;20.75;100.00
56160;BME280;42043;46.052;13.612;2022-08-04T04:36:11;100621.16;;;21.08;98.62
56160;BME280;42043;46.052;13.612;2022-08-04T04:47:36;100619.44;;;20.90;100.00
56160;BME280;42043;46.052;13.612;2022-08-04T04:50:11;100621.53;;;20.60;100.00
56160;BME280;42043;46.052;13.612;2022-08-04T04:55:21;100635.84;;;21.18;98.68
56160;BME280;42043;46.052;13.612;2022-08-04T04:57:51;100630.47;;;20.89;100.00
56160;BME280;42043;46.052;13.612;2022-08-04T05:00:18;100635.41;;;20.80;100.00
56160;BME280;42043;46.052;13.612;2022-08-04T05:13:42;100632.91;;;20.90;99.83
56160;BME280;42043;46.052;13.612;2022-08-04T05:16:16;100628.53;;;21.30;97.77
56160;BME280;42043;46.052;13.612;2022-08-04T05:18:57;100625.31;;;21.16;97.94
56160;BME280;42043;46.052;13.612;2022-08-04T05:21:37;100628.44;;;21.70;94.62
56160;BME280;42043;46.052;13.612;2022-08-04T05:24:08;100626.28;;;22.06;92.83
56160;BME280;42043;46.052;13.612;2022-08-04T05:26:43;100628.53;;;21.92;92.81
56160;BME280;42043;46.052;13.612;2022-08-04T05:29:17;100623.53;;;21.50;94.21
56160;BME280;42043;46.052;13.612;2022-08-04T05:31:50;100610.06;;;21.84;92.44
56160;BME280;42043;46.052;13.612;2022-08-04T05:34:28;100612.59;;;22.08;90.93
56160;BME280;42043;46.052;13.612;2022-08-04T05:37:02;100611.09;;;22.17;91.30
56160;BME280;42043;46.052;13.612;2022-08-04T05:39:35;100609.72;;;22.14;91.18
56160;BME280;42043;46.052;13.612;2022-08-04T05:42:04;100617.06;;;22.36;91.17
56160;BME280;42043;46.052;13.612;2022-08-04T05:44:32;100607.00;;;22.31;89.75
56160;BME280;42043;46.052;13.612;2022-08-04T05:46:58;100615.03;;;22.09;90.25
56160;BME280;42043;46.052;13.612;2022-08-04T05:49:27;100615.09;;;22.53;86.90
56160;BME280;42043;46.052;13.612;2022-08-04T05:51:56;100606.22;;;22.31;90.19
56160;BME280;42043;46.052;13.612;2022-08-04T05:54:23;100621.19;;;22.44;88.44
56160;BME280;42043;46.052;13.612;2022-08-04T05:56:50;100612.75;;;22.35;89.68
56160;BME280;42043;46.052;13.612;2022-08-04T05:59:19;100614.94;;;22.82;85.64
56160;BME280;42043;46.052;13.612;2022-08-04T06:01:46;100609.09;;;22.68;85.74
56160;BME280;42043;46.052;13.612;2022-08-04T06:04:13;100611.22;;;22.88;84.96
56160;BME280;42043;46.052;13.612;2022-08-04T06:06:41;100615.75;;;23.04;83.53
56160;BME280;42043;46.052;13.612;2022-08-04T06:09:08;100613.66;;;23.12;83.79
56160;BME280;42043;46.052;13.612;2022-08-04T06:11:37;100613.13;;;23.15;83.40
56160;BME280;42043;46.052;13.612;2022-08-04T06:14:08;100606.63;;;23.38;82.12
56160;BME280;42043;46.052;13.612;2022-08-04T06:16:40;100608.25;;;23.39;82.14
56160;BME280;42043;46.052;13.612;2022-08-04T06:19:13;100606.00;;;23.31;82.36
56160;BME280;42043;46.052;13.612;2022-08-04T06:21:46;100598.38;;;23.55;79.33
56160;BME280;42043;46.052;13.612;2022-08-04T06:24:17;100599.81;;;23.62;78.57
56160;BME280;42043;46.052;13.612;2022-08-04T06:26:46;100596.31;;;23.99;77.02
56160;BME280;42043;46.052;13.612;2022-08-04T06:29:17;100585.78;;;23.98;77.87
56160;BME280;42043;46.052;13.612;2022-08-04T06:31:56;100591.56;;;24.17;75.69
56160;BME280;42043;46.052;13.612;2022-08-04T06:34:24;100593.94;;;24.08;76.28
56160;BME280;42043;46.052;13.612;2022-08-04T06:36:51;100588.81;;;24.12;75.41
56160;BME280;42043;46.052;13.612;2022-08-04T06:39:21;100590.69;;;24.11;76.02
56160;BME280;42043;46.052;13.612;2022-08-04T06:41:49;100595.69;;;24.35;76.56
56160;BME280;42043;46.052;13.612;2022-08-04T06:44:18;100587.31;;;24.36;74.00
56160;BME280;42043;46.052;13.612;2022-08-04T06:46:45;100588.25;;;24.52;72.65
56160;BME280;42043;46.052;13.612;2022-08-04T06:49:12;100590.19;;;24.72;71.94
56160;BME280;42043;46.052;13.612;2022-08-04T06:51:39;100592.66;;;24.79;72.76
56160;BME280;42043;46.052;13.612;2022-08-04T06:54:06;100584.00;;;24.92;70.82
56160;BME280;42043;46.052;13.612;2022-08-04T06:56:33;100591.06;;;25.08;69.31
56160;BME280;42043;46.052;13.612;2022-08-04T06:59:01;100584.34;;;25.16;69.28
56160;BME280;42043;46.052;13.612;2022-08-04T07:01:29;100582.75;;;25.25;68.68
56160;BME280;42043;46.052;13.612;2022-08-04T07:03:56;100581.41;;;25.43;66.87
56160;BME280;42043;46.052;13.612;2022-08-04T07:06:22;100579.75;;;25.58;66.41
56160;BME280;42043;46.052;13.612;2022-08-04T07:08:51;100574.88;;;25.70;68.36
56160;BME280;42043;46.052;13.612;2022-08-04T07:11:18;100577.31;;;25.76;65.72
56160;BME280;42043;46.052;13.612;2022-08-04T07:13:46;100573.78;;;25.96;64.54
56160;BME280;42043;46.052;13.612;2022-08-04T07:16:15;100572.66;;;26.08;62.92
56160;BME280;42043;46.052;13.612;2022-08-04T07:18:42;100569.94;;;26.13;63.69
56160;BME280;42043;46.052;13.612;2022-08-04T07:21:08;100568.28;;;26.27;62.08
56160;BME280;42043;46.052;13.612;2022-08-04T07:23:36;100567.97;;;26.39;62.04
56160;BME280;42043;46.052;13.612;2022-08-04T07:26:02;100569.28;;;26.42;60.96
56160;BME280;42043;46.052;13.612;2022-08-04T07:28:29;100578.44;;;26.66;60.84
56160;BME280;42043;46.052;13.612;2022-08-04T07:30:56;100574.22;;;26.89;61.48
56160;BME280;42043;46.052;13.612;2022-08-04T07:33:23;100560.84;;;27.03;58.74
56160;BME280;42043;46.052;13.612;2022-08-04T07:35:52;100573.84;;;27.06;58.79
56160;BME280;42043;46.052;13.612;2022-08-04T07:38:18;100557.53;;;27.45;58.41
56160;BME280;42043;46.052;13.612;2022-08-04T07:40:45;100573.53;;;27.52;56.13
56160;BME280;42043;46.052;13.612;2022-08-04T07:43:13;100564.94;;;27.69;55.05
56160;BME280;42043;46.052;13.612;2022-08-04T07:45:40;100569.47;;;27.79;55.39
56160;BME280;42043;46.052;13.612;2022-08-04T07:48:08;100555.09;;;28.02;56.22
56160;BME280;42043;46.052;13.612;2022-08-04T07:50:36;100563.78;;;28.04;53.63
56160;BME280;42043;46.052;13.612;2022-08-04T07:53:03;100557.53;;;28.52;53.04
56160;BME280;42043;46.052;13.612;2022-08-04T07:55:30;100552.16;;;28.66;51.29
56160;BME280;42043;46.052;13.612;2022-08-04T07:57:56;100555.84;;;28.75;52.50
56160;BME280;42043;46.052;13.612;2022-08-04T08:00:22;100562.31;;;28.79;50.79
56160;BME280;42043;46.052;13.612;2022-08-04T08:02:49;100543.47;;;29.02;50.59
56160;BME280;42043;46.052;13.612;2022-08-04T08:05:18;100543.50;;;29.34;49.24
56160;BME280;42043;46.052;13.612;2022-08-04T08:07:46;100543.59;;;29.29;48.24
56160;BME280;42043;46.052;13.612;2022-08-04T08:10:13;100538.88;;;29.82;48.61
56160;BME280;42043;46.052;13.612;2022-08-04T08:12:40;100537.88;;;29.45;46.86
56160;BME280;42043;46.052;13.612;2022-08-04T08:15:09;100529.06;;;29.81;46.73
56160;BME280;42043;46.052;13.612;2022-08-04T08:17:35;100533.00;;;29.74;47.43
56160;BME280;42043;46.052;13.612;2022-08-04T08:20:02;100527.41;;;30.21;46.07
56160;BME280;42043;46.052;13.612;2022-08-04T08:22:29;100528.56;;;30.34;46.05
56160;BME280;42043;46.052;13.612;2022-08-04T08:24:56;100530.34;;;30.25;45.89
56160;BME280;42043;46.052;13.612;2022-08-04T08:27:22;100523.91;;;30.34;45.05
56160;BME280;42043;46.052;13.612;2022-08-04T08:29:48;100531.63;;;30.69;44.35
56160;BME280;42043;46.052;13.612;2022-08-04T08:32:15;100527.13;;;30.73;43.92
56160;BME280;42043;46.052;13.612;2022-08-04T08:34:41;100527.66;;;31.20;43.47
56160;BME280;42043;46.052;13.612;2022-08-04T08:40:09;100519.78;;;31.41;41.00
56160;BME280;42043;46.052;13.612;2022-08-04T08:43:15;100520.56;;;32.13;42.25
56160;BME280;42043;46.052;13.612;2022-08-04T08:48:54;100509.75;;;31.68;39.74
56160;BME280;42043;46.052;13.612;2022-08-04T08:51:54;100510.69;;;31.94;39.20
56160;BME280;42043;46.052;13.612;2022-08-04T08:59:40;100500.81;;;33.11;38.94
56160;BME280;42043;46.052;13.612;2022-08-04T09:11:23;100487.63;;;33.52;34.42
56160;BME280;42043;46.052;13.612;2022-08-04T09:13:57;100483.47;;;33.84;33.51
56160;BME280;42043;46.052;13.612;2022-08-04T09:19:09;100483.81;;;34.12;32.12
56160;BME280;42043;46.052;13.612;2022-08-04T09:21:46;100473.84;;;34.71;30.93
56160;BME280;42043;46.052;13.612;2022-08-04T09:24:21;100482.88;;;34.50;31.67
56160;BME280;42043;46.052;13.612;2022-08-04T09:27:12;100481.16;;;34.46;32.40
56160;BME280;42043;46.052;13.612;2022-08-04T09:30:03;100480.63;;;34.31;32.40
56160;BME280;42043;46.052;13.612;2022-08-04T09:35:33;100466.31;;;33.87;32.38
56160;BME280;42043;46.052;13.612;2022-08-04T09:38:14;100466.84;;;34.61;33.56
56160;BME280;42043;46.052;13.612;2022-08-04T09:40:47;100466.66;;;34.57;32.86
56160;BME280;42043;46.052;13.612;2022-08-04T09:43:35;100465.66;;;34.83;32.46
56160;BME280;42043;46.052;13.612;2022-08-04T09:46:23;100466.28;;;35.71;32.91
56160;BME280;42043;46.052;13.612;2022-08-04T09:49:13;100463.72;;;35.41;30.47
56160;BME280;42043;46.052;13.612;2022-08-04T09:54:22;100454.88;;;35.24;31.58
56160;BME280;42043;46.052;13.612;2022-08-04T09:57:27;100448.03;;;35.79;31.32
56160;BME280;42043;46.052;13.612;2022-08-04T10:00:09;100444.13;;;35.80;30.93
56160;BME280;42043;46.052;13.612;2022-08-04T10:02:39;100438.72;;;35.83;29.71
56160;BME280;42043;46.052;13.612;2022-08-04T10:05:13;100441.66;;;36.28;29.09
56160;BME280;42043;46.052;13.612;2022-08-04T10:07:56;100439.63;;;36.00;28.97
56160;BME280;42043;46.052;13.612;2022-08-04T10:13:25;100433.81;;;36.70;29.59
56160;BME280;42043;46.052;13.612;2022-08-04T10:21:37;100441.19;;;36.54;27.96
56160;BME280;42043;46.052;13.612;2022-08-04T10:27:00;100426.69;;;36.69;27.41
56160;BME280;42043;46.052;13.612;2022-08-04T10:29:37;100423.78;;;36.94;28.35
56160;BME280;42043;46.052;13.612;2022-08-04T10:37:39;100410.00;;;37.25;26.95
56160;BME280;42043;46.052;13.612;2022-08-04T10:40:20;100413.75;;;38.00;25.81
56160;BME280;42043;46.052;13.612;2022-08-04T10:45:43;100415.56;;;37.77;25.75
56160;BME280;42043;46.052;13.612;2022-08-04T10:53:59;100407.75;;;36.67;27.53
56160;BME280;42043;46.052;13.612;2022-08-04T10:56:49;100403.31;;;37.58;26.52
56160;BME280;42043;46.052;13.612;2022-08-04T10:59:25;100390.88;;;37.84;26.07
56160;BME280;42043;46.052;13.612;2022-08-04T11:01:57;100397.88;;;37.97;25.22
56160;BME280;42043;46.052;13.612;2022-08-04T11:04:30;100388.16;;;37.68;26.61
56160;BME280;42043;46.052;13.612;2022-08-04T11:07:00;100394.94;;;37.70;26.62
56160;BME280;42043;46.052;13.612;2022-08-04T11:09:27;100397.75;;;37.07;26.76
56160;BME280;42043;46.052;13.612;2022-08-04T11:12:00;100392.75;;;37.80;26.45
56160;BME280;42043;46.052;13.612;2022-08-04T11:15:35;100397.97;;;38.59;26.15
56160;BME280;42043;46.052;13.612;2022-08-04T11:17:40;100395.34;;;38.89;24.60
56160;BME280;42043;46.052;13.612;2022-08-04T11:20:14;100390.91;;;38.42;26.69
56160;BME280;42043;46.052;13.612;2022-08-04T11:22:51;100392.38;;;38.17;25.41
56160;BME280;42043;46.052;13.612;2022-08-04T11:25:24;100395.50;;;38.54;25.86
56160;BME280;42043;46.052;13.612;2022-08-04T11:28:11;100404.38;;;39.09;24.06
56160;BME280;42043;46.052;13.612;2022-08-04T11:38:55;100378.69;;;39.35;24.22
56160;BME280;42043;46.052;13.612;2022-08-04T11:41:51;100381.50;;;39.62;25.29
56160;BME280;42043;46.052;13.612;2022-08-04T11:44:29;100388.25;;;39.38;23.84
56160;BME280;42043;46.052;13.612;2022-08-04T11:46:59;100395.75;;;39.14;25.23
56160;BME280;42043;46.052;13.612;2022-08-04T11:49:35;100379.16;;;38.68;25.02
56160;BME280;42043;46.052;13.612;2022-08-04T11:52:05;100382.59;;;40.14;23.17
56160;BME280;42043;46.052;13.612;2022-08-04T11:54:33;100378.72;;;39.62;24.10
56160;BME280;42043;46.052;13.612;2022-08-04T11:57:00;100380.28;;;38.44;25.27
56160;BME280;42043;46.052;13.612;2022-08-04T11:59:28;100385.66;;;39.49;24.14
56160;BME280;42043;46.052;13.612;2022-08-04T12:05:07;100365.97;;;40.52;22.44
56160;BME280;42043;46.052;13.612;2022-08-04T12:13:23;100359.09;;;40.38;22.79
56160;BME280;42043;46.052;13.612;2022-08-04T12:16:09;100359.63;;;39.04;24.61
56160;BME280;42043;46.052;13.612;2022-08-04T12:19:01;100356.25;;;40.69;23.20
56160;BME280;42043;46.052;13.612;2022-08-04T12:21:32;100351.41;;;39.91;24.09
56160;BME280;42043;46.052;13.612;2022-08-04T12:24:13;100351.28;;;41.47;23.03
56160;BME280;42043;46.052;13.612;2022-08-04T12:26:45;100354.72;;;40.75;22.28
56160;BME280;42043;46.052;13.612;2022-08-04T12:29:15;100352.41;;;40.80;22.87
56160;BME280;42043;46.052;13.612;2022-08-04T12:34:31;100354.13;;;40.99;22.58
56160;BME280;42043;46.052;13.612;2022-08-04T12:40:09;100346.94;;;39.83;24.40
56160;BME280;42043;46.052;13.612;2022-08-04T12:42:58;100344.03;;;42.02;21.97
56160;BME280;42043;46.052;13.612;2022-08-04T12:45:28;100332.44;;;41.85;20.94
56160;BME280;42043;46.052;13.612;2022-08-04T12:47:58;100343.78;;;42.57;21.22
56160;BME280;42043;46.052;13.612;2022-08-04T12:50:25;100337.84;;;41.53;21.69
56160;BME280;42043;46.052;13.612;2022-08-04T12:52:56;100343.34;;;41.42;21.78
56160;BME280;42043;46.052;13.612;2022-08-04T12:55:28;100346.16;;;40.94;23.30
56160;BME280;42043;46.052;13.612;2022-08-04T12:57:55;100333.22;;;41.82;21.62
56160;BME280;42043;46.052;13.612;2022-08-04T13:00:32;100346.84;;;42.13;21.76
56160;BME280;42043;46.052;13.612;2022-08-04T13:03:05;100347.97;;;41.24;22.53
56160;BME280;42043;46.052;13.612;2022-08-04T13:05:32;100350.19;;;41.56;22.12
56160;BME280;42043;46.052;13.612;2022-08-04T13:08:00;100340.38;;;41.91;21.85
56160;BME280;42043;46.052;13.612;2022-08-04T13:10:30;100335.69;;;42.02;21.27
56160;BME280;42043;46.052;13.612;2022-08-04T13:13:02;100338.19;;;42.39;20.82
56160;BME280;42043;46.052;13.612;2022-08-04T13:15:28;100329.31;;;40.73;22.68
56160;BME280;42043;46.052;13.612;2022-08-04T13:20:33;100326.16;;;41.96;21.36
56160;BME280;42043;46.052;13.612;2022-08-04T13:23:05;100330.66;;;42.97;20.53
56160;BME280;42043;46.052;13.612;2022-08-04T13:25:33;100349.72;;;42.45;21.13
56160;BME280;42043;46.052;13.612;2022-08-04T13:28:00;100338.06;;;39.40;24.06
56160;BME280;42043;46.052;13.612;2022-08-04T13:30:30;100336.53;;;41.33;21.98
56160;BME280;42043;46.052;13.612;2022-08-04T13:33:00;100330.97;;;41.33;22.19
56160;BME280;42043;46.052;13.612;2022-08-04T13:35:27;100334.66;;;42.96;21.35
56160;BME280;42043;46.052;13.612;2022-08-04T13:37:55;100333.03;;;43.09;20.15
56160;BME280;42043;46.052;13.612;2022-08-04T13:40:24;100337.31;;;42.10;21.21
56160;BME280;42043;46.052;13.612;2022-08-04T13:42:52;100323.75;;;41.94;21.68
56160;BME280;42043;46.052;13.612;2022-08-04T13:45:19;100331.53;;;41.56;22.46
56160;BME280;42043;46.052;13.612;2022-08-04T13:47:47;100326.22;;;42.17;22.02
56160;BME280;42043;46.052;13.612;2022-08-04T13:50:21;100322.34;;;41.52;22.01
56160;BME280;42043;46.052;13.612;2022-08-04T13:52:59;100319.25;;;41.64;21.67
56160;BME280;42043;46.052;13.612;2022-08-04T13:55:34;100318.63;;;41.96;21.50
56160;BME280;42043;46.052;13.612;2022-08-04T13:58:13;100321.69;;;41.11;22.89
56160;BME280;42043;46.052;13.612;2022-08-04T14:04:08;100314.28;;;42.20;21.62
56160;BME280;42043;46.052;13.612;2022-08-04T14:07:03;100330.41;;;41.75;22.00
56160;BME280;42043;46.052;13.612;2022-08-04T14:09:32;100326.63;;;42.23;21.71
56160;BME280;42043;46.052;13.612;2022-08-04T14:12:11;100316.69;;;40.79;23.48
56160;BME280;42043;46.052;13.612;2022-08-04T14:14:49;100327.88;;;42.54;21.45
56160;BME280;42043;46.052;13.612;2022-08-04T14:17:17;100313.06;;;42.00;22.08
56160;BME280;42043;46.052;13.612;2022-08-04T14:24:58;100307.19;;;42.34;21.41
56160;BME280;42043;46.052;13.612;2022-08-04T14:27:27;100318.28;;;43.34;20.65
56160;BME280;42043;46.052;13.612;2022-08-04T14:29:54;100315.09;;;42.28;22.23
56160;BME280;42043;46.052;13.612;2022-08-04T14:32:20;100307.41;;;41.85;22.06
56160;BME280;42043;46.052;13.612;2022-08-04T14:34:46;100318.28;;;42.37;22.02
56160;BME280;42043;46.052;13.612;2022-08-04T14:37:15;100305.63;;;42.72;21.51
56160;BME280;42043;46.052;13.612;2022-08-04T14:39:52;100320.88;;;41.07;22.87
56160;BME280;42043;46.052;13.612;2022-08-04T14:42:39;100312.94;;;41.67;22.38
56160;BME280;42043;46.052;13.612;2022-08-04T14:45:06;100310.13;;;41.01;22.53
56160;BME280;42043;46.052;13.612;2022-08-04T14:50:05;100317.13;;;42.99;21.41
56160;BME280;42043;46.052;13.612;2022-08-04T14:52:32;100299.19;;;42.36;21.93
56160;BME280;42043;46.052;13.612;2022-08-04T14:55:23;100302.75;;;43.37;20.70
56160;BME280;42043;46.052;13.612;2022-08-04T14:57:50;100309.13;;;43.41;20.35
56160;BME280;42043;46.052;13.612;2022-08-04T15:00:33;100308.78;;;42.49;21.42
56160;BME280;42043;46.052;13.612;2022-08-04T15:03:09;100303.63;;;43.05;20.62
56160;BME280;42043;46.052;13.612;2022-08-04T15:05:38;100303.19;;;43.06;20.92
56160;BME280;42043;46.052;13.612;2022-08-04T15:08:04;100308.78;;;42.92;20.83
56160;BME280;42043;46.052;13.612;2022-08-04T15:10:31;100303.69;;;41.53;22.48
56160;BME280;42043;46.052;13.612;2022-08-04T15:12:57;100302.34;;;42.05;21.39
56160;BME280;42043;46.052;13.612;2022-08-04T15:15:23;100304.00;;;42.92;21.08
56160;BME280;42043;46.052;13.612;2022-08-04T15:17:53;100287.97;;;41.82;22.18
56160;BME280;42043;46.052;13.612;2022-08-04T15:20:20;100298.78;;;42.16;21.14
56160;BME280;42043;46.052;13.612;2022-08-04T15:22:46;100308.31;;;43.47;20.18
56160;BME280;42043;46.052;13.612;2022-08-04T15:25:12;100298.00;;;42.19;21.29
56160;BME280;42043;46.052;13.612;2022-08-04T15:27:40;100296.00;;;42.19;21.33
56160;BME280;42043;46.052;13.612;2022-08-04T15:30:08;100287.72;;;42.80;21.02
56160;BME280;42043;46.052;13.612;2022-08-04T15:32:42;100293.63;;;43.18;20.53
56160;BME280;42043;46.052;13.612;2022-08-04T15:35:17;100286.56;;;42.45;20.94
56160;BME280;42043;46.052;13.612;2022-08-04T15:38:00;100281.72;;;42.17;21.88
56160;BME280;42043;46.052;13.612;2022-08-04T15:40:42;100286.41;;;43.49;20.19
56160;BME280;42043;46.052;13.612;2022-08-04T15:45:56;100289.63;;;43.30;20.13
56160;BME280;42043;46.052;13.612;2022-08-04T15:48:27;100288.06;;;43.14;20.79
56160;BME280;42043;46.052;13.612;2022-08-04T15:58:53;100279.03;;;43.91;19.73
56160;BME280;42043;46.052;13.612;2022-08-04T16:01:20;100274.72;;;43.83;19.95
56160;BME280;42043;46.052;13.612;2022-08-04T16:03:48;100272.56;;;43.24;20.92
56160;BME280;42043;46.052;13.612;2022-08-04T16:21:46;100267.41;;;42.33;21.20
56160;BME280;42043;46.052;13.612;2022-08-04T16:24:28;100267.00;;;41.99;21.62
56160;BME280;42043;46.052;13.612;2022-08-04T16:26:58;100260.25;;;42.11;21.13
56160;BME280;42043;46.052;13.612;2022-08-04T16:29:29;100255.50;;;42.11;21.60
56160;BME280;42043;46.052;13.612;2022-08-04T16:34:43;100253.47;;;41.10;22.48
56160;BME280;42043;46.052;13.612;2022-08-04T16:37:11;100262.66;;;42.98;20.76
56160;BME280;42043;46.052;13.612;2022-08-04T16:39:39;100253.16;;;42.67;20.84
56160;BME280;42043;46.052;13.612;2022-08-04T16:50:18;100256.31;;;42.58;21.42
56160;BME280;42043;46.052;13.612;2022-08-04T16:52:46;100260.81;;;41.46;23.19
56160;BME280;42043;46.052;13.612;2022-08-04T16:55:22;100254.56;;;41.71;22.16
56160;BME280;42043;46.052;13.612;2022-08-04T16:57:51;100255.47;;;42.04;21.86
56160;BME280;42043;46.052;13.612;2022-08-04T17:00:27;100255.06;;;42.02;22.52
56160;BME280;42043;46.052;13.612;2022-08-04T17:02:54;100253.78;;;41.71;22.25
56160;BME280;42043;46.052;13.612;2022-08-04T17:05:22;100258.69;;;41.15;23.30
56160;BME280;42043;46.052;13.612;2022-08-04T17:07:53;100256.16;;;40.43;23.75
56160;BME280;42043;46.052;13.612;2022-08-04T17:10:52;100263.66;;;41.57;22.82
56160;BME280;42043;46.052;13.612;2022-08-04T17:13:48;100259.59;;;41.37;23.54
56160;BME280;42043;46.052;13.612;2022-08-04T17:16:16;100264.03;;;40.00;25.35
56160;BME280;42043;46.052;13.612;2022-08-04T17:18:46;100269.34;;;40.16;25.68
56160;BME280;42043;46.052;13.612;2022-08-04T17:21:13;100268.66;;;38.99;25.60
56160;BME280;42043;46.052;13.612;2022-08-04T17:23:44;100272.13;;;36.62;30.63
56160;BME280;42043;46.052;13.612;2022-08-04T17:26:16;100260.81;;;35.26;30.31